Time;durP1;ratioP1;P1;durP2;ratioP2;P2;SDS_P1;SDS_P2;PMS_P1;PMS_P2;Temp;Humidity;BMP_temperature;BMP_pressure;BME280_temperature;BME280_humidity;BME280_pressure;Samples;Min_cycle;Max_cycle;Signal;HPM_P1;HPM_P2
2022/10/08 00:01:36;;;;;;;27.13;7.00;;;;;;;;;;5072917;28;20561;-67
2022/10/08 00:04:03;;;;;;;16.63;7.40;;;;;;;;;;5072658;28;20440;-66
2022/10/08 00:06:32;;;;;;;12.23;6.50;;;;;;;;;;5072671;28;20451;-67
2022/10/08 00:09:01;;;;;;;17.88;6.90;;;;;;;;;;5073268;28;20444;-66
2022/10/08 00:11:29;;;;;;;14.10;6.47;;;;;;;;;;5076209;28;20263;-67
2022/10/08 00:13:56;;;;;;;17.43;7.80;;;;;;;;;;5076210;28;20440;-67
2022/10/08 00:16:26;;;;;;;12.40;7.10;;;;;;;;;;5076245;28;20792;-67
2022/10/08 00:18:54;;;;;;;13.17;6.40;;;;;;;;;;5076084;28;20997;-67
2022/10/08 00:21:23;;;;;;;13.73;6.63;;;;;;;;;;5075783;28;20509;-66
2022/10/08 00:23:51;;;;;;;12.60;6.22;;;;;;;;;;5076058;28;20464;-67
2022/10/08 00:26:22;;;;;;;19.37;7.20;;;;;;;;;;5076132;28;20639;-67
2022/10/08 00:28:49;;;;;;;15.90;6.33;;;;;;;;;;5076247;28;20925;-67
2022/10/08 00:31:17;;;;;;;15.17;6.57;;;;;;;;;;5076049;28;20467;-67
2022/10/08 00:33:49;;;;;;;13.30;6.40;;;;;;;;;;5075623;28;20535;-67
2022/10/08 00:36:16;;;;;;;11.20;6.70;;;;;;;;;;5075940;28;20433;-67
2022/10/08 00:38:43;;;;;;;15.67;6.57;;;;;;;;;;5075639;28;20488;-67
2022/10/08 00:41:17;;;;;;;18.90;6.13;;;;;;;;;;5075712;28;20444;-67
2022/10/08 00:43:46;;;;;;;11.93;6.50;;;;;;;;;;5075493;28;20425;-66
2022/10/08 00:46:21;;;;;;;19.67;6.27;;;;;;;;;;5075294;28;20926;-67
2022/10/08 00:48:50;;;;;;;13.60;6.63;;;;;;;;;;5075747;28;20455;-67
2022/10/08 00:51:18;;;;;;;15.10;6.30;;;;;;;;;;5075539;28;20451;-68
2022/10/08 00:53:45;;;;;;;12.47;6.60;;;;;;;;;;5075579;28;20811;-67
2022/10/08 00:56:13;;;;;;;15.83;6.77;;;;;;;;;;5075003;28;20453;-67
2022/10/08 00:58:42;;;;;;;13.97;5.90;;;;;;;;;;5075888;28;20484;-68
2022/10/08 01:01:09;;;;;;;12.87;6.13;;;;;;;;;;5075276;28;20817;-68
2022/10/08 01:03:36;;;;;;;16.40;6.30;;;;;;;;;;5075419;28;20466;-67
2022/10/08 01:06:08;;;;;;;12.20;5.97;;;;;;;;;;5075382;28;20445;-67
2022/10/08 01:08:38;;;;;;;14.00;6.53;;;;;;;;;;5075269;28;20192;-67
2022/10/08 01:11:10;;;;;;;29.53;7.20;;;;;;;;;;5074783;28;20444;-68
2022/10/08 01:13:41;;;;;;;18.37;6.07;;;;;;;;;;5075422;28;20433;-67
2022/10/08 01:16:14;;;;;;;17.20;6.73;;;;;;;;;;5075154;28;20429;-67
2022/10/08 01:18:44;;;;;;;18.20;6.00;;;;;;;;;;5074765;28;20985;-67
2022/10/08 01:21:14;;;;;;;15.93;7.50;;;;;;;;;;5073656;28;20437;-68
2022/10/08 01:23:49;;;;;;;9.70;5.72;;;;;;;;;;5074691;28;20483;-67
2022/10/08 01:26:24;;;;;;;12.00;6.73;;;;;;;;;;5075252;28;20212;-68
2022/10/08 01:28:55;;;;;;;11.80;6.40;;;;;;;;;;5074627;28;20498;-67
2022/10/08 01:31:24;;;;;;;14.10;6.30;;;;;;;;;;5074936;28;20433;-68
2022/10/08 01:33:54;;;;;;;12.50;6.20;;;;;;;;;;5074954;28;20232;-67
2022/10/08 01:36:22;;;;;;;13.93;7.37;;;;;;;;;;5074356;28;20678;-68
2022/10/08 01:38:51;;;;;;;16.50;7.03;;;;;;;;;;5074560;28;20480;-67
2022/10/08 01:41:19;;;;;;;10.57;6.00;;;;;;;;;;5075010;28;20440;-68
2022/10/08 01:43:47;;;;;;;17.37;6.47;;;;;;;;;;5075111;28;20471;-67
2022/10/08 01:46:18;;;;;;;12.43;6.40;;;;;;;;;;5074139;28;20448;-67
2022/10/08 01:48:47;;;;;;;9.60;5.60;;;;;;;;;;5074509;28;20433;-67
2022/10/08 01:51:16;;;;;;;12.97;5.37;;;;;;;;;;5074069;28;20937;-68
2022/10/08 01:53:44;;;;;;;11.47;6.07;;;;;;;;;;5074396;28;20450;-67
2022/10/08 01:56:14;;;;;;;10.03;5.40;;;;;;;;;;5074468;28;20521;-68
2022/10/08 01:58:46;;;;;;;15.17;6.80;;;;;;;;;;5073842;28;20488;-68
2022/10/08 02:01:16;;;;;;;12.63;4.80;;;;;;;;;;5074106;28;20515;-67
2022/10/08 02:04:32;;;;;;;11.20;5.87;;;;;;;;;;5074185;28;20859;-67
2022/10/08 02:06:46;;;;;;;13.73;5.07;;;;;;;;;;5073514;28;20460;-68
2022/10/08 02:09:14;;;;;;;13.80;5.10;;;;;;;;;;5073790;28;20515;-67
2022/10/08 02:11:41;;;;;;;14.93;5.73;;;;;;;;;;5073892;28;20812;-68
2022/10/08 02:14:09;;;;;;;9.10;6.10;;;;;;;;;;5073693;28;20929;-68
2022/10/08 02:16:37;;;;;;;9.10;5.07;;;;;;;;;;5073486;28;20455;-68
2022/10/08 02:19:10;;;;;;;15.83;4.80;;;;;;;;;;5074402;28;20483;-68
2022/10/08 02:21:38;;;;;;;9.90;5.37;;;;;;;;;;5074168;28;20433;-68
2022/10/08 02:24:10;;;;;;;16.40;6.80;;;;;;;;;;5073693;28;20497;-67
2022/10/08 02:26:40;;;;;;;14.43;5.40;;;;;;;;;;5073912;28;20202;-68
2022/10/08 02:29:11;;;;;;;9.67;5.00;;;;;;;;;;5073884;28;20198;-68
2022/10/08 02:31:41;;;;;;;19.53;5.57;;;;;;;;;;5073498;28;20426;-67
2022/10/08 02:34:13;;;;;;;9.50;5.07;;;;;;;;;;5074072;28;20443;-67
2022/10/08 02:36:42;;;;;;;8.87;4.83;;;;;;;;;;5074159;28;20428;-67
2022/10/08 02:39:11;;;;;;;13.33;6.10;;;;;;;;;;5073676;28;20480;-67
2022/10/08 02:41:41;;;;;;;15.30;5.53;;;;;;;;;;5073161;28;20531;-67
2022/10/08 02:44:09;;;;;;;15.80;5.73;;;;;;;;;;5073603;28;20471;-67
2022/10/08 02:46:38;;;;;;;26.67;7.43;;;;;;;;;;5073895;28;20444;-67
2022/10/08 02:49:07;;;;;;;15.70;5.90;;;;;;;;;;5073169;28;20444;-67
2022/10/08 02:51:38;;;;;;;11.40;5.00;;;;;;;;;;5073456;28;20468;-67
2022/10/08 02:54:05;;;;;;;15.97;4.93;;;;;;;;;;5073352;28;20914;-67
2022/10/08 02:56:35;;;;;;;11.20;4.60;;;;;;;;;;5072799;28;20453;-67
2022/10/08 02:59:02;;;;;;;9.60;5.40;;;;;;;;;;5073384;28;20878;-67
2022/10/08 03:01:34;;;;;;;16.07;5.50;;;;;;;;;;5073163;28;20506;-67
2022/10/08 03:04:05;;;;;;;16.83;5.53;;;;;;;;;;5073403;28;20437;-67
2022/10/08 03:06:33;;;;;;;14.70;5.43;;;;;;;;;;5073979;28;20425;-67
2022/10/08 03:09:01;;;;;;;11.70;5.03;;;;;;;;;;5073222;28;20444;-67
2022/10/08 03:11:29;;;;;;;12.07;5.93;;;;;;;;;;5072852;28;20444;-67
2022/10/08 03:13:57;;;;;;;8.60;4.70;;;;;;;;;;5073218;28;20463;-67
2022/10/08 03:16:26;;;;;;;11.10;4.70;;;;;;;;;;5073186;28;20441;-67
2022/10/08 03:18:57;;;;;;;10.33;5.00;;;;;;;;;;5072685;28;20440;-67
2022/10/08 03:21:26;;;;;;;13.00;5.00;;;;;;;;;;5073941;28;20790;-67
2022/10/08 03:23:54;;;;;;;11.10;5.33;;;;;;;;;;5072657;28;20519;-67
2022/10/08 03:26:22;;;;;;;24.23;5.73;;;;;;;;;;5073298;28;20460;-67
2022/10/08 03:28:49;;;;;;;19.73;5.77;;;;;;;;;;5072970;28;20436;-67
2022/10/08 03:31:16;;;;;;;13.60;4.37;;;;;;;;;;5073056;28;20437;-67
2022/10/08 03:33:44;;;;;;;12.23;5.10;;;;;;;;;;5072999;28;20441;-67
2022/10/08 03:36:11;;;;;;;11.17;4.53;;;;;;;;;;5073002;28;20466;-67
2022/10/08 03:38:38;;;;;;;12.03;5.07;;;;;;;;;;5072875;28;20453;-67
2022/10/08 03:41:06;;;;;;;14.13;5.17;;;;;;;;;;5072901;28;20840;-66
2022/10/08 03:43:35;;;;;;;12.63;4.90;;;;;;;;;;5073346;28;20904;-66
2022/10/08 03:46:02;;;;;;;11.47;5.43;;;;;;;;;;5076883;28;20452;-66
2022/10/08 03:48:29;;;;;;;11.13;5.00;;;;;;;;;;5076811;28;20803;-67
2022/10/08 03:50:57;;;;;;;14.40;5.90;;;;;;;;;;5076807;28;20448;-66
2022/10/08 03:53:25;;;;;;;9.60;4.70;;;;;;;;;;5076624;28;20455;-67
2022/10/08 03:55:52;;;;;;;9.20;5.20;;;;;;;;;;5076959;28;20456;-67
2022/10/08 03:58:20;;;;;;;12.70;6.47;;;;;;;;;;5076473;28;20439;-67
2022/10/08 04:00:58;;;;;;;14.97;6.00;;;;;;;;;;5075450;28;20484;-67
2022/10/08 04:03:25;;;;;;;9.30;6.23;;;;;;;;;;5076459;28;20438;-67
2022/10/08 04:05:53;;;;;;;18.77;6.10;;;;;;;;;;5076347;28;20442;-66
2022/10/08 04:08:20;;;;;;;14.73;7.17;;;;;;;;;;5076201;28;20443;-67
2022/10/08 04:10:48;;;;;;;15.27;6.40;;;;;;;;;;5076674;28;20455;-67
2022/10/08 04:13:15;;;;;;;14.73;6.97;;;;;;;;;;5075872;28;20455;-67
2022/10/08 04:15:43;;;;;;;16.13;6.43;;;;;;;;;;5075816;28;20444;-68
2022/10/08 04:18:12;;;;;;;16.77;7.27;;;;;;;;;;5076086;28;20466;-68
2022/10/08 04:20:40;;;;;;;11.43;6.67;;;;;;;;;;5076065;28;20482;-68
2022/10/08 04:23:07;;;;;;;14.17;7.80;;;;;;;;;;5075878;28;20455;-67
2022/10/08 04:25:35;;;;;;;18.27;7.30;;;;;;;;;;5075947;28;20468;-67
2022/10/08 04:28:02;;;;;;;19.80;7.27;;;;;;;;;;5075968;28;20436;-68
2022/10/08 04:30:29;;;;;;;13.63;7.50;;;;;;;;;;5085445;28;20448;-68
2022/10/08 04:32:57;;;;;;;11.70;7.60;;;;;;;;;;5096101;28;20484;-68
2022/10/08 04:35:25;;;;;;;13.97;7.40;;;;;;;;;;5096022;28;20447;-67
2022/10/08 04:37:53;;;;;;;18.83;8.60;;;;;;;;;;5096027;28;20454;-67
2022/10/08 04:40:20;;;;;;;13.17;8.47;;;;;;;;;;5096012;28;20502;-67
2022/10/08 04:42:50;;;;;;;17.17;8.70;;;;;;;;;;5095807;28;20440;-67
2022/10/08 04:45:18;;;;;;;14.47;8.40;;;;;;;;;;5096270;28;20439;-67
2022/10/08 04:47:45;;;;;;;15.43;10.13;;;;;;;;;;5095747;28;20449;-67
2022/10/08 04:50:12;;;;;;;17.97;9.03;;;;;;;;;;5095826;28;20454;-67
2022/10/08 04:52:40;;;;;;;18.70;10.57;;;;;;;;;;5095769;28;20436;-68
2022/10/08 04:55:08;;;;;;;15.70;9.87;;;;;;;;;;5095194;28;20452;-68
2022/10/08 04:57:35;;;;;;;17.23;10.27;;;;;;;;;;5095306;28;20436;-68
2022/10/08 05:00:03;;;;;;;24.53;9.90;;;;;;;;;;5088891;28;20477;-68
2022/10/08 05:02:30;;;;;;;15.47;9.90;;;;;;;;;;5075046;28;20455;-67
2022/10/08 05:04:57;;;;;;;19.93;10.47;;;;;;;;;;5074955;28;20444;-68
2022/10/08 05:07:25;;;;;;;15.30;12.77;;;;;;;;;;5075130;28;20444;-68
2022/10/08 05:09:53;;;;;;;11.93;10.60;;;;;;;;;;5075167;28;20448;-67
2022/10/08 05:12:21;;;;;;;20.67;12.13;;;;;;;;;;5075285;28;20446;-67
2022/10/08 05:14:48;;;;;;;21.03;12.43;;;;;;;;;;5075085;28;20437;-67
2022/10/08 05:17:15;;;;;;;15.47;12.13;;;;;;;;;;5075184;28;20444;-67
2022/10/08 05:19:42;;;;;;;15.80;12.77;;;;;;;;;;5074795;28;20476;-67
2022/10/08 05:22:09;;;;;;;23.60;12.80;;;;;;;;;;5075302;28;20455;-67
2022/10/08 05:24:36;;;;;;;23.00;14.20;;;;;;;;;;5074703;28;20479;-68
2022/10/08 05:27:05;;;;;;;20.00;12.90;;;;;;;;;;5074812;28;20437;-67
2022/10/08 05:29:32;;;;;;;18.43;11.90;;;;;;;;;;5074185;28;20442;-67
2022/10/08 05:31:59;;;;;;;17.57;12.43;;;;;;;;;;5074786;28;20444;-67
2022/10/08 05:34:27;;;;;;;20.60;12.90;;;;;;;;;;5074669;28;20440;-68
2022/10/08 05:36:54;;;;;;;22.87;13.13;;;;;;;;;;5074787;28;20440;-67
2022/10/08 05:39:21;;;;;;;21.17;14.00;;;;;;;;;;5074534;28;20466;-68
2022/10/08 05:41:48;;;;;;;22.50;13.37;;;;;;;;;;5075006;28;20477;-68
2022/10/08 05:44:17;;;;;;;20.10;13.97;;;;;;;;;;5074506;28;20440;-67
2022/10/08 05:46:44;;;;;;;21.03;14.73;;;;;;;;;;5074682;28;20440;-67
2022/10/08 05:49:18;;;;;;;19.80;13.47;;;;;;;;;;5074007;28;20436;-67
2022/10/08 05:51:45;;;;;;;24.27;13.33;;;;;;;;;;5073955;28;20914;-67
2022/10/08 05:54:12;;;;;;;26.83;15.20;;;;;;;;;;5074206;28;20452;-68
2022/10/08 05:56:40;;;;;;;22.13;15.20;;;;;;;;;;5073905;28;20448;-67
2022/10/08 05:59:07;;;;;;;20.60;14.57;;;;;;;;;;5074118;28;20451;-67
2022/10/08 06:01:35;;;;;;;27.03;15.60;;;;;;;;;;5092841;28;20558;-67
2022/10/08 06:04:04;;;;;;;27.33;15.30;;;;;;;;;;5094707;28;20443;-68
2022/10/08 06:06:32;;;;;;;24.13;15.47;;;;;;;;;;5094274;28;20831;-68
2022/10/08 06:09:00;;;;;;;23.77;15.80;;;;;;;;;;5094259;28;20435;-68
2022/10/08 06:11:28;;;;;;;16.63;14.17;;;;;;;;;;5081906;28;20999;-67
2022/10/08 06:13:55;;;;;;;22.73;15.17;;;;;;;;;;5073469;28;20826;-68
2022/10/08 06:16:23;;;;;;;26.03;15.47;;;;;;;;;;5074343;28;20451;-67
2022/10/08 06:18:51;;;;;;;20.53;15.50;;;;;;;;;;5074014;28;20444;-68
2022/10/08 06:21:20;;;;;;;25.00;16.60;;;;;;;;;;5073724;28;20476;-67
2022/10/08 06:23:48;;;;;;;19.70;14.90;;;;;;;;;;5073232;28;20507;-67
2022/10/08 06:26:16;;;;;;;27.97;16.30;;;;;;;;;;5073840;28;20454;-67
2022/10/08 06:28:44;;;;;;;19.60;15.50;;;;;;;;;;5073325;28;20502;-67
2022/10/08 06:31:12;;;;;;;19.93;15.40;;;;;;;;;;5073671;28;20452;-67
2022/10/08 06:33:39;;;;;;;31.67;17.30;;;;;;;;;;5073227;28;20445;-66
2022/10/08 06:36:09;;;;;;;19.23;14.90;;;;;;;;;;5073608;28;20440;-67
2022/10/08 06:38:36;;;;;;;26.97;14.80;;;;;;;;;;5073309;28;20444;-67
2022/10/08 06:41:03;;;;;;;25.10;15.97;;;;;;;;;;5073470;28;20574;-67
2022/10/08 06:43:30;;;;;;;17.37;15.20;;;;;;;;;;5073316;28;20444;-67
2022/10/08 06:45:59;;;;;;;29.90;16.30;;;;;;;;;;5073507;28;20437;-67
2022/10/08 06:48:26;;;;;;;22.33;15.90;;;;;;;;;;5074277;28;20444;-68
2022/10/08 06:50:58;;;;;;;24.00;15.53;;;;;;;;;;5073347;28;20456;-68
2022/10/08 06:53:27;;;;;;;23.00;18.33;;;;;;;;;;5073252;28;20421;-67
2022/10/08 06:55:57;;;;;;;21.27;15.47;;;;;;;;;;5073171;28;20456;-68
2022/10/08 06:58:25;;;;;;;22.50;15.30;;;;;;;;;;5073032;28;20447;-68
2022/10/08 07:01:01;;;;;;;25.23;16.37;;;;;;;;;;5073294;28;20484;-68
2022/10/08 07:03:28;;;;;;;26.00;15.10;;;;;;;;;;5073148;28;20425;-68
2022/10/08 07:05:55;;;;;;;27.93;16.10;;;;;;;;;;5072950;28;20451;-68
2022/10/08 07:08:22;;;;;;;26.50;16.67;;;;;;;;;;5072968;28;20458;-67
2022/10/08 07:10:51;;;;;;;28.20;15.83;;;;;;;;;;5073710;28;20471;-67
2022/10/08 07:13:18;;;;;;;28.20;18.30;;;;;;;;;;5073207;28;20451;-66
2022/10/08 07:15:45;;;;;;;20.73;14.20;;;;;;;;;;5072759;28;20517;-67
2022/10/08 07:18:13;;;;;;;24.47;14.80;;;;;;;;;;5073138;28;20480;-67
2022/10/08 07:20:40;;;;;;;30.20;15.60;;;;;;;;;;5077337;28;20487;-67
2022/10/08 07:23:07;;;;;;;22.87;14.60;;;;;;;;;;5077095;28;20440;-67
2022/10/08 07:25:34;;;;;;;19.50;13.70;;;;;;;;;;5077929;28;20460;-67
2022/10/08 07:28:03;;;;;;;18.93;13.30;;;;;;;;;;5076886;28;20437;-67
2022/10/08 07:30:31;;;;;;;21.70;13.43;;;;;;;;;;5077085;28;20454;-66
2022/10/08 07:32:59;;;;;;;23.27;13.27;;;;;;;;;;5076409;28;20444;-67
2022/10/08 07:35:29;;;;;;;22.10;14.17;;;;;;;;;;5076755;28;20456;-67
2022/10/08 07:37:56;;;;;;;25.87;12.90;;;;;;;;;;5076574;28;20450;-66
2022/10/08 07:40:23;;;;;;;15.37;13.00;;;;;;;;;;5076295;28;20441;-67
2022/10/08 07:42:51;;;;;;;23.03;12.90;;;;;;;;;;5076574;28;21038;-66
2022/10/08 07:45:19;;;;;;;19.87;11.37;;;;;;;;;;5076497;28;20448;-67
2022/10/08 07:47:47;;;;;;;16.33;12.60;;;;;;;;;;5077037;28;20442;-67
2022/10/08 07:50:14;;;;;;;25.13;12.00;;;;;;;;;;5076314;28;20607;-68
2022/10/08 07:52:41;;;;;;;16.67;11.70;;;;;;;;;;5076166;28;20448;-66
2022/10/08 07:55:08;;;;;;;19.57;12.00;;;;;;;;;;5076430;28;20446;-67
2022/10/08 07:57:36;;;;;;;16.50;11.20;;;;;;;;;;5076133;28;20442;-67
2022/10/08 08:00:03;;;;;;;15.97;10.63;;;;;;;;;;5076156;28;20530;-67
2022/10/08 08:02:32;;;;;;;17.27;10.80;;;;;;;;;;5080348;28;20575;-67
2022/10/08 08:04:59;;;;;;;16.77;11.83;;;;;;;;;;5096322;28;20451;-67
2022/10/08 08:07:26;;;;;;;19.27;9.60;;;;;;;;;;5096519;28;20440;-66
2022/10/08 08:09:53;;;;;;;16.30;10.13;;;;;;;;;;5096307;28;20446;-66
2022/10/08 08:12:20;;;;;;;16.27;9.73;;;;;;;;;;5096090;28;20452;-66
2022/10/08 08:14:48;;;;;;;10.93;9.80;;;;;;;;;;5096134;28;20447;-66
2022/10/08 08:17:15;;;;;;;21.03;10.83;;;;;;;;;;5095894;28;20443;-67
2022/10/08 08:19:43;;;;;;;13.97;9.37;;;;;;;;;;5096531;28;20547;-66
2022/10/08 08:22:11;;;;;;;18.77;8.80;;;;;;;;;;5096322;28;20483;-67
2022/10/08 08:24:38;;;;;;;10.43;8.83;;;;;;;;;;5095697;28;20477;-66
2022/10/08 08:27:05;;;;;;;15.80;8.30;;;;;;;;;;5096115;28;20446;-67
2022/10/08 08:29:32;;;;;;;16.07;8.73;;;;;;;;;;5095765;28;20441;-66
2022/10/08 08:31:59;;;;;;;17.00;8.00;;;;;;;;;;5096038;28;20440;-67
2022/10/08 08:34:26;;;;;;;9.23;8.40;;;;;;;;;;5055437;28;20474;-66
2022/10/08 08:36:55;;;;;;;14.93;7.40;;;;;;;;;;5055961;28;20499;-67
2022/10/08 08:39:23;;;;;;;12.33;7.10;;;;;;;;;;5055766;28;20521;-67
2022/10/08 08:42:00;;;;;;;10.30;6.63;;;;;;;;;;5055533;28;20478;-66
2022/10/08 08:44:30;;;;;;;12.30;8.07;;;;;;;;;;5055630;28;20491;-67
2022/10/08 08:47:00;;;;;;;12.60;6.97;;;;;;;;;;5055872;28;20426;-67
2022/10/08 08:49:29;;;;;;;14.00;6.27;;;;;;;;;;5055787;28;20460;-66
2022/10/08 08:51:58;;;;;;;10.80;6.50;;;;;;;;;;5055157;28;20458;-67
2022/10/08 08:54:26;;;;;;;8.47;6.70;;;;;;;;;;5054942;28;20461;-67
2022/10/08 08:56:53;;;;;;;10.50;7.20;;;;;;;;;;5055073;28;20473;-66
2022/10/08 08:59:28;;;;;;;14.63;7.83;;;;;;;;;;5055447;28;20458;-66
2022/10/08 09:01:57;;;;;;;7.80;6.40;;;;;;;;;;5054912;28;20986;-66
2022/10/08 09:04:27;;;;;;;13.83;7.30;;;;;;;;;;5055275;28;20449;-67
2022/10/08 09:06:56;;;;;;;11.90;7.30;;;;;;;;;;5055209;28;20632;-67
2022/10/08 09:09:26;;;;;;;8.13;5.77;;;;;;;;;;5055599;28;20449;-67
2022/10/08 09:11:54;;;;;;;9.60;5.30;;;;;;;;;;5055024;28;20433;-67
2022/10/08 09:14:28;;;;;;;21.63;8.40;;;;;;;;;;5055271;28;20443;-67
2022/10/08 09:16:56;;;;;;;6.33;5.10;;;;;;;;;;5055497;28;20767;-67
2022/10/08 09:19:23;;;;;;;7.80;5.27;;;;;;;;;;5055169;28;20450;-67
2022/10/08 09:21:51;;;;;;;12.80;5.77;;;;;;;;;;5054916;28;20497;-67
2022/10/08 09:24:18;;;;;;;13.10;5.40;;;;;;;;;;5055254;28;20466;-67
2022/10/08 09:26:47;;;;;;;9.67;7.20;;;;;;;;;;5055625;28;20537;-67
2022/10/08 09:29:31;;;;;;;11.33;5.50;;;;;;;;;;5054553;28;20538;-67
2022/10/08 09:31:58;;;;;;;8.20;4.87;;;;;;;;;;5055057;28;20428;-67
2022/10/08 09:34:26;;;;;;;9.67;5.20;;;;;;;;;;5055180;28;20456;-67
2022/10/08 09:36:54;;;;;;;10.43;4.23;;;;;;;;;;5055095;28;20850;-68
2022/10/08 09:39:22;;;;;;;6.60;4.03;;;;;;;;;;5054657;28;20939;-67
2022/10/08 09:42:11;;;;;;;6.87;3.77;;;;;;;;;;5053725;28;20489;-68
2022/10/08 09:44:40;;;;;;;12.03;4.47;;;;;;;;;;5054240;28;20442;-67
2022/10/08 09:47:10;;;;;;;7.77;4.80;;;;;;;;;;5054726;28;20530;-67
2022/10/08 09:49:38;;;;;;;8.23;4.00;;;;;;;;;;5054366;28;20429;-67
2022/10/08 09:52:07;;;;;;;10.67;3.80;;;;;;;;;;5054130;28;20522;-67
2022/10/08 09:54:36;;;;;;;9.70;4.57;;;;;;;;;;5054541;28;20447;-67
2022/10/08 09:57:06;;;;;;;6.67;4.07;;;;;;;;;;5054028;28;20457;-67
2022/10/08 09:59:35;;;;;;;12.33;3.90;;;;;;;;;;5054074;28;20483;-67
2022/10/08 10:02:06;;;;;;;6.93;3.87;;;;;;;;;;5054715;28;20484;-67
2022/10/08 10:04:35;;;;;;;4.50;3.93;;;;;;;;;;5054167;28;20789;-67
2022/10/08 10:07:03;;;;;;;4.13;2.87;;;;;;;;;;5054114;28;20450;-67
2022/10/08 10:09:39;;;;;;;7.23;2.63;;;;;;;;;;5054156;28;20458;-67
2022/10/08 10:12:12;;;;;;;7.23;3.13;;;;;;;;;;5054260;28;20434;-66
2022/10/08 10:14:43;;;;;;;8.67;3.67;;;;;;;;;;5054319;28;20488;-67
2022/10/08 10:17:13;;;;;;;6.43;2.57;;;;;;;;;;5053953;28;20780;-67
2022/10/08 10:19:43;;;;;;;8.53;3.23;;;;;;;;;;5054055;28;20435;-67
2022/10/08 10:22:13;;;;;;;9.03;2.80;;;;;;;;;;5054052;28;20987;-67
2022/10/08 10:24:47;;;;;;;3.50;2.93;;;;;;;;;;5053798;28;20869;-67
2022/10/08 10:27:19;;;;;;;8.00;2.90;;;;;;;;;;5054217;28;20440;-66
2022/10/08 10:29:53;;;;;;;5.53;3.40;;;;;;;;;;5053953;28;20505;-66
2022/10/08 10:32:23;;;;;;;6.83;2.67;;;;;;;;;;5053982;28;20519;-66
2022/10/08 10:34:55;;;;;;;4.33;2.60;;;;;;;;;;5053503;28;20456;-67
2022/10/08 10:37:27;;;;;;;4.73;2.73;;;;;;;;;;5054168;28;20438;-67
2022/10/08 10:39:56;;;;;;;5.40;2.40;;;;;;;;;;5053728;28;20438;-67
2022/10/08 10:42:30;;;;;;;4.27;2.17;;;;;;;;;;5054001;28;20480;-67
2022/10/08 10:44:58;;;;;;;8.60;2.80;;;;;;;;;;5053598;28;20524;-66
2022/10/08 10:47:26;;;;;;;4.03;2.17;;;;;;;;;;5053373;28;20446;-67
2022/10/08 10:49:54;;;;;;;4.57;2.67;;;;;;;;;;5053506;28;20454;-67
2022/10/08 10:52:38;;;;;;;3.90;2.17;;;;;;;;;;5053499;28;20447;-66
2022/10/08 10:55:12;;;;;;;5.27;2.20;;;;;;;;;;5052825;28;20461;-67
2022/10/08 10:57:50;;;;;;;4.87;1.87;;;;;;;;;;5054295;28;20441;-67
2022/10/08 11:00:18;;;;;;;3.43;1.70;;;;;;;;;;5053134;28;20440;-66
2022/10/08 11:02:52;;;;;;;6.00;2.07;;;;;;;;;;5053095;28;20497;-66
2022/10/08 11:05:21;;;;;;;3.47;1.80;;;;;;;;;;5054053;28;20433;-66
2022/10/08 11:08:07;;;;;;;9.20;2.33;;;;;;;;;;5063494;28;20808;-68
2022/10/08 11:10:41;;;;;;;4.90;1.90;;;;;;;;;;5073365;28;20441;-69
2022/10/08 11:13:16;;;;;;;6.07;1.80;;;;;;;;;;5071935;28;20439;-68
2022/10/08 11:15:45;;;;;;;5.17;1.73;;;;;;;;;;5073279;28;20483;-68
2022/10/08 11:18:21;;;;;;;2.77;1.87;;;;;;;;;;5072716;28;20500;-68
2022/10/08 11:20:56;;;;;;;3.60;1.57;;;;;;;;;;5071343;28;20464;-69
2022/10/08 11:23:31;;;;;;;3.07;1.87;;;;;;;;;;5073086;28;20479;-68
2022/10/08 11:26:01;;;;;;;6.73;2.13;;;;;;;;;;5072907;28;20861;-69
2022/10/08 11:28:34;;;;;;;5.33;1.90;;;;;;;;;;5073007;28;20433;-69
2022/10/08 11:31:08;;;;;;;6.13;2.53;;;;;;;;;;5072967;28;20425;-69
2022/10/08 11:33:36;;;;;;;5.10;2.10;;;;;;;;;;5072709;28;20439;-69
2022/10/08 11:36:16;;;;;;;7.47;2.40;;;;;;;;;;5072676;28;20440;-69
2022/10/08 11:38:46;;;;;;;4.27;2.27;;;;;;;;;;5072748;28;20441;-69
2022/10/08 11:41:16;;;;;;;5.93;2.63;;;;;;;;;;5073347;28;20820;-69
2022/10/08 11:43:46;;;;;;;8.10;2.90;;;;;;;;;;5071815;28;20476;-69
2022/10/08 11:46:21;;;;;;;9.43;2.50;;;;;;;;;;5070762;28;20468;-69
2022/10/08 11:48:48;;;;;;;6.03;2.60;;;;;;;;;;5052349;28;20421;-69
2022/10/08 11:51:32;;;;;;;6.00;2.10;;;;;;;;;;5052812;28;20438;-69
2022/10/08 11:54:07;;;;;;;2.97;2.07;;;;;;;;;;5052675;28;20878;-69
2022/10/08 11:56:35;;;;;;;7.50;2.50;;;;;;;;;;5053086;28;20457;-69
2022/10/08 11:59:07;;;;;;;7.40;2.60;;;;;;;;;;5052496;28;20451;-69
2022/10/08 12:01:34;;;;;;;4.23;2.10;;;;;;;;;;5052777;28;20435;-69
2022/10/08 12:04:04;;;;;;;6.30;1.97;;;;;;;;;;5052551;28;20482;-69
2022/10/08 12:06:33;;;;;;;8.57;2.30;;;;;;;;;;5057139;28;20439;-69
2022/10/08 12:09:02;;;;;;;8.03;2.30;;;;;;;;;;5096471;28;20799;-69
2022/10/08 12:11:49;;;;;;;9.10;2.50;;;;;;;;;;5096950;28;20437;-68
2022/10/08 12:14:45;;;;;;;6.13;2.00;;;;;;;;;;5096337;28;20804;-69
2022/10/08 12:17:12;;;;;;;4.93;2.10;;;;;;;;;;5096793;28;20493;-69
2022/10/08 12:19:43;;;;;;;6.40;2.00;;;;;;;;;;5096231;28;20440;-68
2022/10/08 12:22:25;;;;;;;8.60;2.30;;;;;;;;;;5096376;28;20957;-68
2022/10/08 12:24:56;;;;;;;1.97;1.77;;;;;;;;;;5095706;28;20806;-69
2022/10/08 12:27:34;;;;;;;3.80;2.57;;;;;;;;;;5096650;28;20519;-68
2022/10/08 12:30:05;;;;;;;4.17;1.63;;;;;;;;;;5096175;28;20508;-68
2022/10/08 12:32:33;;;;;;;4.70;1.80;;;;;;;;;;5096419;28;20436;-68
2022/10/08 12:35:01;;;;;;;2.90;2.07;;;;;;;;;;5095988;28;20450;-68
2022/10/08 12:37:49;;;;;;;2.70;1.67;;;;;;;;;;5096220;28;20771;-68
2022/10/08 12:40:23;;;;;;;11.03;2.33;;;;;;;;;;5070290;28;20453;-68
2022/10/08 12:42:51;;;;;;;3.57;2.00;;;;;;;;;;5096089;28;20469;-68
2022/10/08 12:45:23;;;;;;;9.60;2.07;;;;;;;;;;5096241;28;20438;-68
2022/10/08 12:47:53;;;;;;;4.80;2.00;;;;;;;;;;5096377;28;20439;-68
2022/10/08 12:50:30;;;;;;;4.77;2.10;;;;;;;;;;5095827;28;20925;-68
2022/10/08 12:52:59;;;;;;;4.50;2.00;;;;;;;;;;5095489;28;20434;-68
2022/10/08 12:55:28;;;;;;;4.23;2.13;;;;;;;;;;5095516;28;20955;-68
2022/10/08 12:57:55;;;;;;;2.87;1.70;;;;;;;;;;5095459;28;20454;-68
2022/10/08 13:00:25;;;;;;;4.30;1.77;;;;;;;;;;5095362;28;20947;-68
2022/10/08 13:02:59;;;;;;;2.17;1.93;;;;;;;;;;5095612;28;20492;-68
2022/10/08 13:05:27;;;;;;;4.73;1.90;;;;;;;;;;5095494;28;20439;-68
2022/10/08 13:07:55;;;;;;;6.43;2.10;;;;;;;;;;5095706;28;20446;-71
2022/10/08 13:10:23;;;;;;;9.97;2.17;;;;;;;;;;5095503;28;20473;-69
2022/10/08 13:13:00;;;;;;;3.90;1.83;;;;;;;;;;5085359;28;20447;-69
2022/10/08 13:15:29;;;;;;;3.00;1.50;;;;;;;;;;5075199;28;20442;-69
2022/10/08 13:17:57;;;;;;;5.73;2.00;;;;;;;;;;5074084;28;20543;-69
2022/10/08 13:20:25;;;;;;;8.43;2.90;;;;;;;;;;5074746;28;20953;-72
2022/10/08 13:22:52;;;;;;;4.93;2.47;;;;;;;;;;5074596;28;20481;-69
2022/10/08 13:25:31;;;;;;;8.17;1.73;;;;;;;;;;5074811;28;20833;-69
2022/10/08 13:28:09;;;;;;;9.93;2.20;;;;;;;;;;5074574;28;20444;-69
2022/10/08 13:30:37;;;;;;;3.60;1.70;;;;;;;;;;5074913;28;20604;-69
2022/10/08 13:33:05;;;;;;;6.27;2.10;;;;;;;;;;5072994;28;20979;-69
2022/10/08 13:35:33;;;;;;;3.57;1.40;;;;;;;;;;5074355;28;20443;-69
2022/10/08 13:38:00;;;;;;;5.03;1.60;;;;;;;;;;5074890;28;20501;-69
2022/10/08 13:40:27;;;;;;;3.70;1.70;;;;;;;;;;5074605;28;20445;-68
2022/10/08 13:42:57;;;;;;;3.67;1.70;;;;;;;;;;5074544;28;20487;-68
2022/10/08 13:45:25;;;;;;;2.43;1.53;;;;;;;;;;5074477;28;20503;-68
2022/10/08 13:47:54;;;;;;;6.17;1.67;;;;;;;;;;5075060;28;20456;-68
2022/10/08 13:50:22;;;;;;;4.73;2.33;;;;;;;;;;5074510;28;20447;-68
2022/10/08 13:52:53;;;;;;;2.90;1.77;;;;;;;;;;5074588;28;20805;-68
2022/10/08 13:55:23;;;;;;;3.13;1.73;;;;;;;;;;5074345;28;21144;-68
2022/10/08 13:57:50;;;;;;;2.83;1.57;;;;;;;;;;5074303;28;20440;-68
2022/10/08 14:00:18;;;;;;;4.77;1.60;;;;;;;;;;5074134;28;20450;-68
2022/10/08 14:02:45;;;;;;;2.63;2.00;;;;;;;;;;5074062;28;20481;-68
2022/10/08 14:05:14;;;;;;;3.10;1.70;;;;;;;;;;5073997;28;20449;-68
2022/10/08 14:07:41;;;;;;;3.60;2.00;;;;;;;;;;5074071;28;20785;-69
2022/10/08 14:10:12;;;;;;;3.83;1.80;;;;;;;;;;5074263;28;20806;-69
2022/10/08 14:12:40;;;;;;;3.47;1.73;;;;;;;;;;5074340;28;20439;-69
2022/10/08 14:15:08;;;;;;;8.70;1.60;;;;;;;;;;5073487;28;20446;-68
2022/10/08 14:17:35;;;;;;;4.33;1.50;;;;;;;;;;5073227;28;20501;-69
2022/10/08 14:20:02;;;;;;;6.27;1.43;;;;;;;;;;5073506;28;20935;-69
2022/10/08 14:22:37;;;;;;;4.30;2.20;;;;;;;;;;5073709;28;20842;-68
2022/10/08 14:25:05;;;;;;;3.33;2.10;;;;;;;;;;5074403;28;20655;-69
2022/10/08 14:27:32;;;;;;;4.30;1.90;;;;;;;;;;5073020;28;20451;-69
2022/10/08 14:29:59;;;;;;;6.70;2.30;;;;;;;;;;5073491;28;20442;-68
2022/10/08 14:32:26;;;;;;;4.23;1.80;;;;;;;;;;5073460;28;20553;-68
2022/10/08 14:34:53;;;;;;;3.03;2.13;;;;;;;;;;5073318;28;20446;-68
2022/10/08 14:37:20;;;;;;;3.70;1.73;;;;;;;;;;5073597;28;20551;-68
2022/10/08 14:39:49;;;;;;;3.53;1.90;;;;;;;;;;5073297;28;20963;-68
2022/10/08 14:42:16;;;;;;;5.43;1.77;;;;;;;;;;5073170;28;20462;-68
2022/10/08 14:44:44;;;;;;;1.93;1.50;;;;;;;;;;5073748;28;20479;-68
2022/10/08 14:47:11;;;;;;;2.13;1.57;;;;;;;;;;5073431;28;20445;-69